Time;durP1;ratioP1;P1;durP2;ratioP2;P2;SDS_P1;SDS_P2;PMS_P1;PMS_P2;Temp;Humidity;BMP_temperature;BMP_pressure;BME280_temperature;BME280_humidity;BME280_pressure;Samples;Min_cycle;Max_cycle;Signal;HPM_P1;HPM_P2
2024/01/13 00:01:48;;;;;;;27.80;20.00;;;;;;;-3.76;77.25;93083.72;5037314;28;20225;-75
2024/01/13 00:04:14;;;;;;;29.90;19.07;;;;;;;-4.16;77.30;93067.25;5048875;28;20183;-76
2024/01/13 00:06:39;;;;;;;21.07;16.40;;;;;;;-4.09;76.27;93077.47;5035326;28;20206;-75
2024/01/13 00:09:05;;;;;;;19.93;16.30;;;;;;;-4.11;77.38;93085.31;5032573;28;20183;-76
2024/01/13 00:11:30;;;;;;;25.63;17.77;;;;;;;-4.03;77.56;93067.38;5047480;28;20205;-75
2024/01/13 00:13:56;;;;;;;23.93;17.50;;;;;;;-3.96;77.06;93047.84;5048174;28;20186;-78
2024/01/13 00:16:21;;;;;;;25.03;18.60;;;;;;;-3.70;75.62;93067.69;5047850;28;20304;-78
2024/01/13 00:18:46;;;;;;;35.17;23.60;;;;;;;-4.12;76.40;93047.25;5046831;28;20218;-74
2024/01/13 00:21:12;;;;;;;18.83;16.17;;;;;;;-4.15;75.35;93065.47;5050798;28;20233;-75
2024/01/13 00:23:37;;;;;;;19.10;17.07;;;;;;;-3.99;75.59;93072.91;5040518;28;20226;-79
2024/01/13 00:26:03;;;;;;;22.47;19.77;;;;;;;-4.13;75.25;93035.50;5051549;28;20197;-76
2024/01/13 00:28:28;;;;;;;18.80;16.90;;;;;;;-3.93;77.65;93083.16;5046260;28;20223;-76
2024/01/13 00:30:53;;;;;;;26.03;17.87;;;;;;;-4.23;74.89;93019.69;5042355;28;20210;-76
2024/01/13 00:33:18;;;;;;;22.80;16.80;;;;;;;-4.06;74.71;93077.16;5042989;28;20298;-76
2024/01/13 00:35:44;;;;;;;25.73;17.67;;;;;;;-3.91;74.37;93085.53;5050079;28;20197;-76
2024/01/13 00:38:09;;;;;;;22.93;16.53;;;;;;;-3.82;74.74;93080.16;5051699;28;20233;-78
2024/01/13 00:40:35;;;;;;;19.47;17.23;;;;;;;-4.62;75.74;93014.19;5051500;28;20199;-76
2024/01/13 00:43:00;;;;;;;21.33;16.70;;;;;;;-3.99;75.39;93067.78;5042700;28;20227;-76
2024/01/13 00:45:25;;;;;;;21.67;16.60;;;;;;;-4.30;74.99;93029.03;5047332;28;20198;-76
2024/01/13 00:47:51;;;;;;;18.57;16.77;;;;;;;-4.43;75.99;93028.88;5075733;28;20245;-77
2024/01/13 00:50:16;;;;;;;20.53;16.03;;;;;;;-4.07;75.70;93063.59;5039690;28;20183;-78
2024/01/13 00:52:42;;;;;;;24.10;17.53;;;;;;;-4.56;76.67;93001.50;5049974;28;20225;-77
2024/01/13 00:55:07;;;;;;;19.20;16.33;;;;;;;-4.23;75.74;93029.88;5050630;28;20182;-77
2024/01/13 00:57:33;;;;;;;24.27;19.53;;;;;;;-3.91;76.08;93052.41;5041756;28;20228;-78
2024/01/13 00:59:58;;;;;;;22.70;18.63;;;;;;;-4.10;74.63;92996.91;5050219;28;20190;-77
2024/01/13 01:02:23;;;;;;;19.80;15.93;;;;;;;-3.94;74.62;93052.75;5046081;28;20219;-77
2024/01/13 01:04:49;;;;;;;26.43;18.97;;;;;;;-4.19;74.55;93005.63;5051651;28;20189;-77
2024/01/13 01:07:15;;;;;;;23.00;18.23;;;;;;;-4.14;74.01;93027.03;5051159;28;20222;-77
2024/01/13 01:09:40;;;;;;;22.73;18.57;;;;;;;-3.62;73.83;93019.09;5051743;28;20200;-78
2024/01/13 01:12:06;;;;;;;33.20;22.83;;;;;;;-3.58;73.40;93056.81;5043000;28;20222;-77
2024/01/13 01:14:32;;;;;;;18.70;16.50;;;;;;;-3.79;73.41;93010.13;5051369;28;20182;-77
2024/01/13 01:16:57;;;;;;;24.67;17.80;;;;;;;-3.44;73.28;93040.66;5046521;28;20214;-78
2024/01/13 01:19:23;;;;;;;25.80;16.13;;;;;;;-3.63;73.10;93037.94;5048036;28;20187;-76
2024/01/13 01:21:49;;;;;;;27.70;19.20;;;;;;;-3.70;74.25;93042.19;5042604;28;20285;-77
2024/01/13 01:24:14;;;;;;;20.00;17.70;;;;;;;-3.54;73.29;93003.69;5044535;28;20247;-78
2024/01/13 01:26:40;;;;;;;23.43;17.67;;;;;;;-3.25;72.91;93025.69;5036590;28;20186;-77
2024/01/13 01:29:05;;;;;;;18.63;16.53;;;;;;;-3.63;73.85;93033.63;5051373;28;20182;-77
2024/01/13 01:31:31;;;;;;;24.70;18.10;;;;;;;-3.89;75.01;92999.47;5043829;28;20210;-78
2024/01/13 01:33:56;;;;;;;22.47;17.53;;;;;;;-3.52;73.15;93022.16;5051220;28;20198;-78
2024/01/13 01:36:21;;;;;;;27.00;19.13;;;;;;;-3.80;74.44;93006.00;5051181;28;20194;-78
2024/01/13 01:38:47;;;;;;;23.93;18.03;;;;;;;-3.66;73.24;93023.00;5040544;28;20225;-78
2024/01/13 01:41:16;;;;;;;25.37;18.57;;;;;;;-3.64;74.16;93018.50;5038919;28;20264;-78
2024/01/13 01:43:42;;;;;;;24.60;18.47;;;;;;;-3.65;74.28;93030.47;5048125;28;20285;-78
2024/01/13 01:46:08;;;;;;;21.90;19.00;;;;;;;-3.73;73.97;93011.94;5045895;28;20183;-77
2024/01/13 01:48:36;;;;;;;21.00;18.40;;;;;;;-3.55;74.15;93025.06;5044811;28;20229;-77
2024/01/13 01:51:01;;;;;;;25.60;17.83;;;;;;;-3.48;73.67;93021.59;5050295;28;20214;-77
2024/01/13 01:53:27;;;;;;;29.87;19.33;;;;;;;-3.36;75.09;93027.75;5045077;28;20248;-77
2024/01/13 01:55:53;;;;;;;22.37;18.37;;;;;;;-3.38;73.80;93028.94;5049977;28;20182;-77
2024/01/13 01:58:20;;;;;;;24.10;18.13;;;;;;;-3.40;73.13;93018.91;5037688;28;20210;-77
2024/01/13 02:00:47;;;;;;;18.17;16.30;;;;;;;-3.62;72.83;93045.41;5045360;28;20246;-77
2024/01/13 02:03:13;;;;;;;22.77;17.90;;;;;;;-3.64;72.69;93041.44;5033469;28;20230;-77
2024/01/13 02:05:39;;;;;;;18.87;16.57;;;;;;;-3.61;73.04;93033.47;5047486;28;20266;-78
2024/01/13 02:08:05;;;;;;;20.60;16.07;;;;;;;-4.06;73.31;93024.38;5045194;28;20218;-77
2024/01/13 02:10:31;;;;;;;23.77;16.80;;;;;;;-3.63;74.24;93037.94;5040452;28;20294;-78
2024/01/13 02:12:57;;;;;;;26.97;18.37;;;;;;;-3.80;72.95;93016.97;5044655;28;20238;-77
2024/01/13 02:15:22;;;;;;;24.47;18.10;;;;;;;-3.78;73.30;93009.16;5036388;28;20186;-77
2024/01/13 02:17:48;;;;;;;19.43;17.43;;;;;;;-3.88;72.91;92983.19;5051357;28;20257;-77
2024/01/13 02:20:13;;;;;;;21.00;17.17;;;;;;;-3.77;73.65;93019.19;5039546;28;20179;-78
2024/01/13 02:22:38;;;;;;;24.70;16.97;;;;;;;-3.85;75.40;93028.72;5050116;28;20234;-77
2024/01/13 02:25:05;;;;;;;25.20;17.27;;;;;;;-4.06;73.39;92990.47;5053812;28;20217;-77
2024/01/13 02:27:30;;;;;;;24.80;18.27;;;;;;;-3.67;73.86;93022.22;5046241;28;20230;-77
2024/01/13 02:29:56;;;;;;;22.27;19.27;;;;;;;-4.08;78.01;92956.72;5048704;28;20177;-77
2024/01/13 02:32:21;;;;;;;24.10;19.70;;;;;;;-3.75;73.70;93011.38;5035918;28;20215;-77
2024/01/13 02:34:47;;;;;;;21.07;17.10;;;;;;;-4.02;73.23;92954.25;5050381;28;20178;-78
2024/01/13 02:37:12;;;;;;;26.93;18.93;;;;;;;-3.45;73.43;93003.34;5042795;28;20220;-78
2024/01/13 02:39:38;;;;;;;22.60;17.27;;;;;;;-3.53;73.10;93002.69;5052454;28;20210;-77
2024/01/13 02:42:04;;;;;;;20.43;17.53;;;;;;;-3.86;74.42;93004.19;5043609;28;20248;-77
2024/01/13 02:44:29;;;;;;;19.23;17.30;;;;;;;-3.82;74.77;93007.94;5053154;28;20220;-78
2024/01/13 02:46:55;;;;;;;20.10;17.40;;;;;;;-4.57;76.06;92940.56;5051436;28;20214;-77
2024/01/13 02:49:20;;;;;;;18.60;15.47;;;;;;;-4.05;75.74;93002.25;5051776;28;20177;-77
2024/01/13 02:51:46;;;;;;;20.10;16.60;;;;;;;-3.99;75.30;92976.03;5050969;28;20265;-77
2024/01/13 02:54:11;;;;;;;22.70;17.40;;;;;;;-3.87;76.04;92990.66;5047232;28;20215;-78
2024/01/13 02:56:36;;;;;;;24.57;17.97;;;;;;;-3.80;76.89;92995.81;5046711;28;20189;-78
2024/01/13 02:59:02;;;;;;;20.43;18.20;;;;;;;-4.08;76.51;93000.06;5049432;28;20249;-77
2024/01/13 03:01:30;;;;;;;21.77;19.50;;;;;;;-4.16;76.97;93021.34;5049145;28;20197;-76
2024/01/13 03:03:56;;;;;;;23.60;18.47;;;;;;;-4.00;76.56;93020.34;5048903;28;20684;-76
2024/01/13 03:06:22;;;;;;;27.70;18.53;;;;;;;-4.02;75.72;93017.97;5049259;28;20224;-76
2024/01/13 03:08:48;;;;;;;21.63;17.93;;;;;;;-4.30;75.33;92947.50;5037424;28;20214;-78
2024/01/13 03:11:13;;;;;;;21.23;17.60;;;;;;;-4.02;75.78;92992.47;5049211;28;20221;-78
2024/01/13 03:13:38;;;;;;;24.67;19.07;;;;;;;-4.03;75.67;93015.59;5047588;28;20217;-77
2024/01/13 03:16:05;;;;;;;23.13;18.23;;;;;;;-4.33;76.94;93019.19;5041761;28;20186;-76
2024/01/13 03:18:31;;;;;;;26.07;17.87;;;;;;;-4.15;76.91;93027.22;5048053;28;20277;-77
2024/01/13 03:20:56;;;;;;;19.07;15.40;;;;;;;-4.46;77.42;93024.13;5048694;28;20242;-78
2024/01/13 03:23:21;;;;;;;24.07;18.87;;;;;;;-4.67;78.15;93012.16;5046428;28;20694;-77
2024/01/13 03:25:47;;;;;;;25.87;20.03;;;;;;;-4.27;78.49;93039.66;5047409;28;20209;-77
2024/01/13 03:28:12;;;;;;;27.63;17.27;;;;;;;-4.23;80.24;93025.59;5048708;28;20277;-77
2024/01/13 03:30:37;;;;;;;24.07;17.73;;;;;;;-4.08;77.75;93038.28;5043859;28;20189;-78
2024/01/13 03:33:03;;;;;;;18.00;16.07;;;;;;;-4.38;77.93;93026.59;5048706;28;20226;-77
2024/01/13 03:35:28;;;;;;;25.40;19.03;;;;;;;-4.24;78.27;93033.41;5049123;28;20190;-77
2024/01/13 03:37:54;;;;;;;20.53;17.73;;;;;;;-4.36;78.08;93022.13;5048548;28;20225;-78
2024/01/13 03:40:20;;;;;;;27.93;18.60;;;;;;;-4.13;77.28;93035.50;5045680;28;20245;-77
2024/01/13 03:42:45;;;;;;;20.07;17.97;;;;;;;-3.94;76.72;93047.66;5046523;28;20225;-78
2024/01/13 03:45:12;;;;;;;20.23;18.00;;;;;;;-3.88;77.19;93049.47;5048719;28;20183;-77
2024/01/13 03:47:41;;;;;;;20.97;17.50;;;;;;;-3.87;77.91;93035.75;5050363;28;20228;-77
2024/01/13 03:50:08;;;;;;;22.20;17.83;;;;;;;-4.00;77.71;93033.09;5052881;28;20178;-77
2024/01/13 03:52:33;;;;;;;23.10;18.27;;;;;;;-4.21;78.67;93017.75;5051427;28;20936;-77
2024/01/13 03:54:59;;;;;;;17.40;15.60;;;;;;;-4.48;78.28;92980.25;5052818;28;20190;-77
2024/01/13 03:57:24;;;;;;;25.10;18.27;;;;;;;-4.24;78.05;93016.38;5051710;28;20286;-79
2024/01/13 03:59:50;;;;;;;24.03;18.67;;;;;;;-4.48;77.73;92975.16;5052682;28;20246;-77
2024/01/13 04:02:15;;;;;;;26.63;18.73;;;;;;;-4.55;77.19;92984.47;5045904;28;20303;-78
2024/01/13 04:04:41;;;;;;;22.87;18.07;;;;;;;-4.31;76.90;93009.63;5041435;28;20193;-78
2024/01/13 04:07:07;;;;;;;20.53;16.50;;;;;;;-4.43;77.73;93018.69;5045425;28;20260;-79
2024/01/13 04:09:33;;;;;;;22.83;17.20;;;;;;;-4.37;77.09;93026.41;5050275;28;20705;-78
2024/01/13 04:11:58;;;;;;;24.77;17.87;;;;;;;-4.51;77.81;92998.44;5044272;28;20232;-77
2024/01/13 04:14:24;;;;;;;21.77;19.63;;;;;;;-4.75;78.34;92991.88;5050081;28;20182;-77
2024/01/13 04:16:49;;;;;;;22.33;17.13;;;;;;;-4.36;76.90;93025.47;5049301;28;20679;-77
2024/01/13 04:19:15;;;;;;;25.47;18.00;;;;;;;-4.43;79.58;93026.31;5052921;28;20194;-77
2024/01/13 04:21:41;;;;;;;24.57;19.10;;;;;;;-4.25;80.42;93021.66;5045747;28;20218;-77
2024/01/13 04:24:06;;;;;;;26.10;19.47;;;;;;;-4.48;81.54;93015.91;5039050;28;20202;-77
2024/01/13 04:26:32;;;;;;;28.47;19.77;;;;;;;-4.55;82.11;93037.94;5051493;28;20826;-77
2024/01/13 04:28:58;;;;;;;25.87;19.57;;;;;;;-4.81;82.80;93017.25;5043231;28;20190;-77
2024/01/13 04:31:23;;;;;;;30.23;18.07;;;;;;;-4.71;83.35;93040.69;5045642;28;20205;-77
2024/01/13 04:33:48;;;;;;;27.97;20.57;;;;;;;-4.65;83.28;93048.41;5036285;28;20219;-77
2024/01/13 04:36:14;;;;;;;28.23;20.47;;;;;;;-4.71;83.78;93058.50;5048449;28;20162;-76
2024/01/13 04:38:39;;;;;;;33.90;21.07;;;;;;;-4.78;81.84;93029.63;5043441;28;20221;-77
2024/01/13 04:41:05;;;;;;;29.17;19.60;;;;;;;-4.56;80.83;93029.50;5041498;28;20213;-77
2024/01/13 04:43:30;;;;;;;25.57;18.10;;;;;;;-4.63;79.20;93053.31;5045618;28;20222;-76
2024/01/13 04:45:56;;;;;;;23.13;17.37;;;;;;;-4.49;79.75;93052.53;5041472;28;20179;-77
2024/01/13 04:48:22;;;;;;;20.93;17.40;;;;;;;-4.30;78.33;93036.69;5042824;28;20250;-77
2024/01/13 04:50:47;;;;;;;23.40;18.07;;;;;;;-4.21;78.29;93066.97;5031184;28;20218;-77
2024/01/13 04:53:13;;;;;;;21.30;16.87;;;;;;;-4.48;78.34;93064.31;5050077;28;20217;-77
2024/01/13 04:55:38;;;;;;;32.80;18.50;;;;;;;-4.33;78.96;93082.91;5046969;28;20174;-77
2024/01/13 04:58:04;;;;;;;27.93;19.57;;;;;;;-4.50;78.60;93063.69;5051245;28;20269;-77
2024/01/13 05:00:31;;;;;;;23.30;18.87;;;;;;;-4.58;78.59;93071.41;5051150;28;20201;-77
2024/01/13 05:02:57;;;;;;;27.63;18.73;;;;;;;-4.65;78.46;93038.22;5051422;28;20218;-77
2024/01/13 05:05:22;;;;;;;26.20;19.27;;;;;;;-4.45;77.51;93061.41;5051635;28;20221;-77
2024/01/13 05:07:47;;;;;;;23.87;18.27;;;;;;;-4.47;80.59;93058.22;5042723;28;20223;-78
2024/01/13 05:10:14;;;;;;;29.27;19.90;;;;;;;-4.52;79.71;93061.31;5045590;28;20201;-77
2024/01/13 05:12:39;;;;;;;22.50;18.43;;;;;;;-4.58;76.89;93056.13;5049217;28;20763;-77
2024/01/13 05:15:05;;;;;;;18.97;16.77;;;;;;;-4.63;78.88;93063.50;5046011;28;20185;-77
2024/01/13 05:17:31;;;;;;;18.60;16.63;;;;;;;-4.78;76.75;93065.28;5048138;28;20233;-76
2024/01/13 05:19:56;;;;;;;17.20;15.50;;;;;;;-4.88;76.97;93049.47;5051501;28;20186;-77
2024/01/13 05:22:21;;;;;;;18.70;16.73;;;;;;;-4.87;76.96;93036.56;5040524;28;20233;-76
2024/01/13 05:24:47;;;;;;;17.03;15.60;;;;;;;-5.00;77.61;93021.13;5050622;28;20182;-77
2024/01/13 05:27:13;;;;;;;17.77;16.00;;;;;;;-4.86;77.13;93042.44;5049377;28;20255;-78
2024/01/13 05:29:39;;;;;;;20.73;16.43;;;;;;;-4.73;78.13;93030.66;5050931;28;20212;-77
2024/01/13 05:32:04;;;;;;;17.50;15.37;;;;;;;-4.93;76.76;93003.41;5037780;28;20202;-77
2024/01/13 05:34:30;;;;;;;16.13;13.63;;;;;;;-4.88;76.58;93021.47;5050615;28;20193;-77
2024/01/13 05:36:55;;;;;;;18.60;13.93;;;;;;;-4.90;76.55;93028.50;5044551;28;20222;-77
2024/01/13 05:39:20;;;;;;;19.03;16.70;;;;;;;-4.81;77.45;93030.00;5051005;28;20174;-76
2024/01/13 05:41:46;;;;;;;15.57;14.13;;;;;;;-4.94;76.50;93030.59;5046504;28;20231;-77
2024/01/13 05:44:11;;;;;;;18.17;16.33;;;;;;;-4.79;76.66;93030.63;5050028;28;20177;-80
2024/01/13 05:46:37;;;;;;;20.13;14.83;;;;;;;-4.70;77.56;93047.38;5042373;28;20214;-91
2024/01/13 05:49:02;;;;;;;24.00;15.37;;;;;;;-4.70;76.77;93052.47;5046861;28;20193;-74
2024/01/13 05:51:28;;;;;;;24.43;17.30;;;;;;;-4.34;77.12;93045.66;5045017;28;20205;-75
2024/01/13 05:53:54;;;;;;;17.80;15.73;;;;;;;-4.62;76.76;93044.75;5046708;28;20201;-75
2024/01/13 05:56:19;;;;;;;20.77;16.50;;;;;;;-4.58;77.87;93049.28;5049148;28;20194;-75
2024/01/13 05:58:44;;;;;;;18.93;16.93;;;;;;;-4.81;77.31;93046.06;5040593;28;20226;-84
2024/01/13 06:01:10;;;;;;;21.93;16.27;;;;;;;-4.61;77.34;93052.19;5044573;28;20320;-84
2024/01/13 06:03:35;;;;;;;22.43;18.80;;;;;;;-4.38;76.45;93046.97;5048072;28;20973;-76
2024/01/13 06:06:00;;;;;;;19.57;16.27;;;;;;;-4.59;76.39;93032.41;5044449;28;20218;-76
2024/01/13 06:08:26;;;;;;;23.00;18.00;;;;;;;-4.48;76.52;93019.22;5048402;28;20241;-76
2024/01/13 06:10:51;;;;;;;21.50;18.53;;;;;;;-5.03;76.09;92996.03;5048371;28;20214;-76
2024/01/13 06:13:18;;;;;;;23.20;17.70;;;;;;;-4.60;77.65;93022.41;5048728;28;20313;-76
2024/01/13 06:15:43;;;;;;;20.37;17.23;;;;;;;-4.82;75.38;93043.69;5046348;28;20170;-76
2024/01/13 06:18:08;;;;;;;19.33;16.97;;;;;;;-4.69;75.66;93038.75;5046943;28;20248;-74
2024/01/13 06:20:34;;;;;;;19.87;17.80;;;;;;;-4.55;75.47;93043.03;5046952;28;20237;-74
2024/01/13 06:22:59;;;;;;;19.23;17.30;;;;;;;-4.61;75.19;93041.22;5048626;28;20230;-75
2024/01/13 06:25:24;;;;;;;18.50;16.60;;;;;;;-4.66;75.83;93054.47;5042964;28;20343;-73
2024/01/13 06:27:50;;;;;;;19.37;15.57;;;;;;;-4.69;76.28;93038.75;5047003;28;20222;-75
2024/01/13 06:30:15;;;;;;;20.43;17.03;;;;;;;-4.57;76.46;93050.88;5045016;28;20194;-75
2024/01/13 06:32:41;;;;;;;20.40;17.97;;;;;;;-4.56;77.35;93028.75;5040738;28;20257;-79
2024/01/13 06:35:07;;;;;;;24.50;18.20;;;;;;;-4.59;77.93;93036.75;5036111;28;20198;-85
2024/01/13 06:37:32;;;;;;;19.23;17.23;;;;;;;-4.65;78.11;93012.75;5033516;28;20226;-86
2024/01/13 06:39:57;;;;;;;20.50;17.20;;;;;;;-4.59;77.58;93039.28;5046101;28;20181;-81
2024/01/13 06:42:23;;;;;;;21.90;18.10;;;;;;;-4.57;78.80;93022.06;5048485;28;20986;-84
2024/01/13 06:44:49;;;;;;;18.23;16.17;;;;;;;-4.78;77.17;93014.38;5045213;28;20221;-81
2024/01/13 06:47:14;;;;;;;29.20;17.60;;;;;;;-4.49;81.41;93024.50;5042428;28;20224;-81
2024/01/13 06:49:39;;;;;;;22.57;17.27;;;;;;;-4.66;76.89;93031.56;5044986;28;20189;-76
2024/01/13 06:52:05;;;;;;;18.27;16.03;;;;;;;-4.44;76.70;93033.19;5045838;28;20218;-76
2024/01/13 06:54:30;;;;;;;20.60;16.67;;;;;;;-4.60;76.40;93038.50;5047958;28;20186;-82
2024/01/13 06:56:56;;;;;;;20.23;16.80;;;;;;;-4.45;77.10;93066.50;5039130;28;20295;-80
2024/01/13 06:59:21;;;;;;;23.90;19.10;;;;;;;-4.37;76.19;93066.41;5047448;28;20198;-78
2024/01/13 07:01:47;;;;;;;18.43;16.60;;;;;;;-4.68;75.57;93050.50;5038175;28;20230;-73
2024/01/13 07:04:13;;;;;;;18.20;16.53;;;;;;;-4.56;76.14;93054.22;5045409;28;20194;-78
2024/01/13 07:06:38;;;;;;;20.27;18.27;;;;;;;-4.56;75.48;93054.97;5042901;28;20261;-75
2024/01/13 07:09:04;;;;;;;22.07;17.90;;;;;;;-4.22;75.21;93051.88;5042422;28;20267;-76
2024/01/13 07:11:29;;;;;;;24.50;18.00;;;;;;;-4.22;76.38;93062.84;5044635;28;20313;-77
2024/01/13 07:13:54;;;;;;;25.03;19.90;;;;;;;-4.26;76.21;93053.19;5043320;28;20194;-84
2024/01/13 07:16:20;;;;;;;21.57;16.37;;;;;;;-4.21;74.72;93077.16;5043123;28;20220;-80
2024/01/13 07:18:45;;;;;;;19.63;17.60;;;;;;;-4.09;76.19;93085.13;5041886;28;20217;-75
2024/01/13 07:21:11;;;;;;;18.80;16.80;;;;;;;-3.90;77.96;93082.00;5043995;28;20225;-79
2024/01/13 07:23:37;;;;;;;19.23;16.13;;;;;;;-3.95;77.98;93084.31;5037540;28;20241;-74
2024/01/13 07:26:02;;;;;;;20.20;17.53;;;;;;;-3.97;76.26;93083.72;5045446;28;20204;-73
2024/01/13 07:28:28;;;;;;;18.60;16.43;;;;;;;-4.01;75.99;93067.97;5042673;28;20230;-73
2024/01/13 07:30:53;;;;;;;18.63;16.53;;;;;;;-3.91;76.16;93073.59;5036646;28;20224;-73
2024/01/13 07:33:18;;;;;;;28.57;20.70;;;;;;;-4.08;76.41;93089.28;5040819;28;20221;-73
2024/01/13 07:35:44;;;;;;;20.03;17.40;;;;;;;-4.02;76.24;93086.81;5045906;28;20226;-73
2024/01/13 07:38:09;;;;;;;18.07;16.17;;;;;;;-4.00;76.47;93091.72;5046678;28;20221;-71
2024/01/13 07:40:35;;;;;;;27.60;20.57;;;;;;;-3.86;75.69;93086.56;5047246;28;20216;-73
2024/01/13 07:43:00;;;;;;;26.17;19.33;;;;;;;-4.06;75.98;93072.06;5046023;28;20245;-72
2024/01/13 07:45:26;;;;;;;23.47;18.93;;;;;;;-3.94;79.23;93080.81;5046696;28;20279;-73
2024/01/13 07:47:51;;;;;;;23.53;20.53;;;;;;;-3.81;79.22;93068.97;5046582;28;20226;-76
2024/01/13 07:50:17;;;;;;;22.83;17.80;;;;;;;-3.82;76.45;93082.69;5048135;28;20190;-75
2024/01/13 07:52:42;;;;;;;19.07;16.77;;;;;;;-3.87;78.00;93076.53;5044221;28;20229;-75
2024/01/13 07:55:08;;;;;;;21.13;18.20;;;;;;;-3.90;76.38;93087.09;5037770;28;20205;-76
2024/01/13 07:57:35;;;;;;;22.93;18.37;;;;;;;-3.66;75.89;93077.34;5046208;28;20652;-77
2024/01/13 08:00:00;;;;;;;22.80;18.07;;;;;;;-3.85;75.62;93084.81;5043359;28;20189;-81
2024/01/13 08:02:26;;;;;;;19.13;16.40;;;;;;;-4.08;75.99;93064.59;5046882;28;20226;-75
2024/01/13 08:04:52;;;;;;;20.77;16.23;;;;;;;-3.63;74.42;93058.34;5044675;28;20186;-74
2024/01/13 08:07:20;;;;;;;19.87;17.53;;;;;;;-3.76;75.36;93070.97;5042825;28;20222;-72
2024/01/13 08:09:47;;;;;;;19.27;16.97;;;;;;;-3.81;75.62;93068.16;5046628;28;20202;-75
2024/01/13 08:12:13;;;;;;;19.43;17.43;;;;;;;-3.81;74.29;93070.72;5045487;28;20226;-75
2024/01/13 08:14:38;;;;;;;21.17;17.53;;;;;;;-3.93;73.79;93046.69;5041462;28;20190;-75
2024/01/13 08:17:04;;;;;;;17.60;15.37;;;;;;;-3.86;74.90;93042.44;5046761;28;20230;-74
2024/01/13 08:19:29;;;;;;;18.67;16.03;;;;;;;-3.67;73.10;93080.06;5043756;28;20186;-74
2024/01/13 08:21:55;;;;;;;18.07;16.13;;;;;;;-3.60;70.55;93083.50;5034754;28;20266;-75
2024/01/13 08:24:20;;;;;;;20.37;18.27;;;;;;;-3.40;71.10;93090.38;5046990;28;20194;-74
2024/01/13 08:26:45;;;;;;;16.33;14.67;;;;;;;-3.39;70.41;93076.63;5044443;28;20242;-75
2024/01/13 08:29:11;;;;;;;20.43;16.50;;;;;;;-2.93;72.05;93081.28;5046434;28;20237;-75
2024/01/13 08:31:36;;;;;;;17.90;15.60;;;;;;;-3.04;70.09;93089.47;5046223;28;20281;-75
2024/01/13 08:34:01;;;;;;;16.57;15.17;;;;;;;-3.01;70.09;93089.88;5045781;28;20187;-74
2024/01/13 08:36:27;;;;;;;19.80;16.30;;;;;;;-2.92;69.26;93078.56;5048741;28;20190;-75
2024/01/13 08:38:52;;;;;;;17.53;15.87;;;;;;;-2.71;68.24;93086.16;5045987;28;20191;-74
2024/01/13 08:41:17;;;;;;;16.87;15.13;;;;;;;-2.84;66.84;93075.06;5060011;28;20213;-75
2024/01/13 08:43:43;;;;;;;15.70;14.10;;;;;;;-2.81;67.87;93083.16;5046907;28;20209;-74
2024/01/13 08:46:11;;;;;;;16.00;14.17;;;;;;;-2.55;67.71;93090.97;5050242;28;20220;-75
2024/01/13 08:48:37;;;;;;;18.00;16.27;;;;;;;-3.03;68.25;93076.50;5042653;28;20313;-74
2024/01/13 08:51:02;;;;;;;18.63;16.83;;;;;;;-2.67;68.07;93089.91;5046247;28;20221;-75
2024/01/13 08:53:27;;;;;;;19.00;16.73;;;;;;;-2.63;67.79;93070.66;5049501;28;20226;-74
2024/01/13 08:55:53;;;;;;;17.20;15.43;;;;;;;-2.70;67.81;93069.84;5049304;28;20220;-74
2024/01/13 08:58:19;;;;;;;15.67;14.07;;;;;;;-2.40;66.71;93062.75;5050361;28;20229;-74
2024/01/13 09:00:44;;;;;;;15.93;14.67;;;;;;;-2.99;67.59;92996.03;5042080;28;20213;-73
2024/01/13 09:03:09;;;;;;;17.53;15.90;;;;;;;-2.65;67.08;93028.41;5047899;28;20232;-73
2024/01/13 09:05:34;;;;;;;15.87;14.37;;;;;;;-2.57;66.12;93028.25;5050029;28;20183;-73
2024/01/13 09:08:00;;;;;;;14.67;13.53;;;;;;;-2.67;66.51;93020.94;5046681;28;20248;-74
2024/01/13 09:10:25;;;;;;;16.27;14.83;;;;;;;-2.51;65.82;93042.81;5049507;28;20244;-74
2024/01/13 09:12:50;;;;;;;15.37;13.87;;;;;;;-2.59;66.93;93030.22;5049718;28;20226;-74
2024/01/13 09:15:16;;;;;;;18.73;16.43;;;;;;;-2.43;66.45;93033.22;5044514;28;20246;-74
2024/01/13 09:17:41;;;;;;;18.57;16.77;;;;;;;-2.29;65.58;93019.50;5048747;28;20241;-74
2024/01/13 09:20:10;;;;;;;15.47;14.23;;;;;;;-2.30;66.37;93023.06;5049567;28;20213;-74
2024/01/13 09:22:36;;;;;;;17.40;15.43;;;;;;;-2.41;66.08;93018.50;5046237;28;20293;-75
2024/01/13 09:25:02;;;;;;;15.30;13.93;;;;;;;-2.60;66.55;93029.41;5045791;28;20201;-75
2024/01/13 09:27:27;;;;;;;15.30;14.17;;;;;;;-2.37;68.91;93031.69;5047813;28;20229;-76
2024/01/13 09:29:53;;;;;;;17.53;15.83;;;;;;;-2.84;66.39;92925.16;5047988;28;20193;-76
2024/01/13 09:32:18;;;;;;;17.17;14.47;;;;;;;-2.35;66.92;92999.06;5047414;28;20232;-76
2024/01/13 09:34:43;;;;;;;16.70;15.27;;;;;;;-2.23;66.09;93016.22;5048206;28;20202;-76
2024/01/13 09:37:10;;;;;;;18.87;16.93;;;;;;;-2.19;65.65;93003.81;5040864;28;20219;-75
2024/01/13 09:39:36;;;;;;;15.97;14.57;;;;;;;-2.36;65.55;93003.38;5034928;28;20187;-76
2024/01/13 09:42:02;;;;;;;18.00;15.90;;;;;;;-2.36;67.63;93002.56;5049315;28;20256;-73
2024/01/13 09:44:29;;;;;;;18.20;15.37;;;;;;;-2.39;66.68;92993.53;5043497;28;20174;-72
2024/01/13 09:46:59;;;;;;;19.13;15.83;;;;;;;-2.47;67.23;92986.03;5046575;28;20263;-73
2024/01/13 09:49:29;;;;;;;17.90;15.90;;;;;;;-2.55;66.90;92977.75;5045496;28;20183;-72
2024/01/13 09:51:56;;;;;;;25.50;18.23;;;;;;;-2.19;68.93;92996.94;5040997;28;20214;-75
2024/01/13 09:54:23;;;;;;;16.63;15.03;;;;;;;-2.11;66.43;92994.22;5037711;28;20186;-77
2024/01/13 09:56:49;;;;;;;18.53;16.63;;;;;;;-2.43;66.61;92977.00;5045408;28;20258;-74
2024/01/13 09:59:15;;;;;;;19.77;17.77;;;;;;;-2.27;66.96;92981.78;5041616;28;20293;-76
2024/01/13 10:01:41;;;;;;;18.13;16.20;;;;;;;-2.28;67.19;92990.44;5045314;28;20853;-76
2024/01/13 10:04:07;;;;;;;16.00;14.20;;;;;;;-2.45;67.42;92984.09;5037770;28;20205;-75
2024/01/13 10:06:34;;;;;;;15.47;14.03;;;;;;;-2.48;67.24;92969.13;5045119;28;20197;-75
2024/01/13 10:09:00;;;;;;;18.00;15.13;;;;;;;-2.03;70.50;92960.78;5044072;28;20186;-76
2024/01/13 10:11:27;;;;;;;16.50;14.97;;;;;;;-2.11;65.67;92960.16;5044373;28;20224;-74
2024/01/13 10:13:59;;;;;;;19.03;17.13;;;;;;;-1.73;70.46;92946.63;5058474;28;20198;-75
2024/01/13 10:16:29;;;;;;;15.17;13.97;;;;;;;-2.05;66.62;92946.59;5041946;28;20306;-75
2024/01/13 10:18:59;;;;;;;17.87;16.27;;;;;;;-2.11;68.30;92944.84;5047426;28;20206;-74
2024/01/13 10:21:25;;;;;;;18.03;14.70;;;;;;;-1.87;68.25;92944.28;5040959;28;20210;-75
2024/01/13 10:23:54;;;;;;;17.57;15.90;;;;;;;-1.93;67.69;92922.81;5043104;28;20233;-76
2024/01/13 10:26:20;;;;;;;16.00;14.53;;;;;;;-2.07;67.27;92930.69;5040454;28;20190;-76
2024/01/13 10:28:46;;;;;;;15.47;13.90;;;;;;;-2.23;67.90;92939.50;5037760;28;20241;-77
2024/01/13 10:31:12;;;;;;;19.67;14.57;;;;;;;-2.05;68.56;92949.16;5041409;28;20282;-79
2024/01/13 10:33:39;;;;;;;19.00;15.20;;;;;;;-2.04;67.59;92909.84;5044201;28;20306;-77
2024/01/13 10:36:05;;;;;;;16.73;15.13;;;;;;;-2.19;68.50;92917.69;5040129;28;20183;-75
2024/01/13 10:38:31;;;;;;;16.47;14.40;;;;;;;-2.02;67.67;92934.22;5046705;28;20306;-75
2024/01/13 10:40:57;;;;;;;17.50;15.83;;;;;;;-1.94;68.99;92921.25;5035094;28;20201;-75
2024/01/13 10:43:24;;;;;;;19.70;17.83;;;;;;;-2.01;67.33;92943.47;5042866;28;20209;-73
2024/01/13 10:45:57;;;;;;;19.63;14.97;;;;;;;-1.80;68.56;92943.31;5040212;28;20199;-73
2024/01/13 10:48:45;;;;;;;17.00;15.37;;;;;;;-1.45;67.20;92908.06;5044927;28;20217;-74
2024/01/13 10:51:34;;;;;;;17.87;16.07;;;;;;;-1.82;67.03;92940.13;5044851;28;20213;-74
2024/01/13 10:54:01;;;;;;;17.43;15.57;;;;;;;-2.00;68.38;92916.91;5040775;28;20770;-75
2024/01/13 10:56:30;;;;;;;16.43;14.50;;;;;;;-2.04;67.68;92931.06;5047318;28;20245;-74
2024/01/13 10:58:58;;;;;;;17.47;15.30;;;;;;;-1.81;67.18;92936.63;5047236;28;20186;-74
2024/01/13 11:01:26;;;;;;;17.90;16.10;;;;;;;-1.79;67.81;92913.41;5042649;28;20170;-75
2024/01/13 11:03:54;;;;;;;16.30;14.63;;;;;;;-2.05;66.71;92880.91;5047572;28;20202;-75
2024/01/13 11:06:21;;;;;;;16.73;15.10;;;;;;;-1.92;66.28;92913.38;5047646;28;20186;-75
2024/01/13 11:08:47;;;;;;;18.17;16.37;;;;;;;-1.73;65.96;92887.78;5045985;28;20217;-75
2024/01/13 11:11:21;;;;;;;19.53;17.57;;;;;;;-1.59;66.06;92928.72;5028880;28;20214;-75